Time;durP1;ratioP1;P1;durP2;ratioP2;P2;SDS_P1;SDS_P2;PMS_P1;PMS_P2;Temp;Humidity;BMP_temperature;BMP_pressure;BME280_temperature;BME280_humidity;BME280_pressure;Samples;Min_cycle;Max_cycle;Signal;HPM_P1;HPM_P2
2022/11/10 08:12:41;;;;;;;6.00;2.10;;;;;;;7.20;91.94;101603.56;6150360;23;20130;-73
2022/11/10 08:16:03;;;;;;;7.78;4.25;;;;;;;6.97;92.67;101603.19;6150612;23;20078;-74
2022/11/10 08:19:25;;;;;;;11.02;2.25;;;;;;;6.99;93.90;101606.63;6151725;23;20072;-75
2022/11/10 08:22:48;;;;;;;6.88;1.88;;;;;;;7.20;92.64;101613.97;6151182;23;20028;-81
2022/11/10 08:26:10;;;;;;;5.30;2.47;;;;;;;7.48;90.89;101617.72;6151178;23;20363;-81
2022/11/10 08:29:32;;;;;;;9.82;2.22;;;;;;;7.58;90.22;101604.47;6149477;23;20066;-81
2022/11/10 08:33:00;;;;;;;11.18;3.45;;;;;;;7.60;90.48;101602.69;6149549;23;20029;-81
2022/11/10 08:36:22;;;;;;;6.97;2.13;;;;;;;7.54;91.65;101615.84;6150003;23;20102;-81
2022/11/10 08:39:44;;;;;;;8.27;1.92;;;;;;;7.71;91.15;101619.81;6150639;23;20359;-81
2022/11/10 08:43:08;;;;;;;;;;;;;;;7.89;91.28;101614.19;6150725;23;20044;-81
2022/11/10 08:46:31;;;;;;;11.05;2.42;;;;;;;7.67;93.33;101616.44;6151765;23;19982;-81
2022/11/10 08:49:53;;;;;;;9.05;2.22;;;;;;;7.74;93.70;101624.94;6151364;23;20474;-80
2022/11/10 08:53:25;;;;;;;11.68;2.28;;;;;;;7.85;94.48;101625.56;6151864;23;20100;-82
2022/11/10 08:56:49;;;;;;;10.48;2.78;;;;;;;8.09;94.70;101637.13;6151576;23;20114;-82
2022/11/10 09:00:12;;;;;;;;;;;;;;;8.18;95.75;101642.13;6152378;23;20388;-83
2022/11/10 09:03:39;;;;;;;11.90;3.95;;;;;;;8.81;93.66;101643.16;6151711;23;19930;-82
2022/11/10 09:07:02;;;;;;;21.42;5.20;;;;;;;9.14;91.67;101648.34;6151596;23;20025;-82
2022/11/10 09:10:30;;;;;;;14.88;4.40;;;;;;;9.30;90.79;101644.38;6153360;23;20155;-82
2022/11/10 09:13:52;;;;;;;14.20;3.03;;;;;;;9.45;88.72;101662.22;6181195;23;20024;-81
2022/11/10 09:17:16;;;;;;;7.53;2.78;;;;;;;9.62;88.28;101668.69;6181108;23;20350;-82
2022/11/10 09:21:10;;;;;;;14.30;3.42;;;;;;;9.68;87.25;101678.94;6181167;23;20078;-82
2022/11/10 09:24:32;;;;;;;13.13;4.28;;;;;;;9.71;87.01;101676.25;6167082;23;20024;-82
2022/11/10 09:27:55;;;;;;;10.60;2.85;;;;;;;9.75;87.06;101694.38;6167342;23;20024;-82
2022/11/10 09:31:17;;;;;;;9.52;2.63;;;;;;;9.84;86.98;101700.25;6181210;23;20032;-81
2022/11/10 09:34:39;;;;;;;14.75;3.72;;;;;;;9.90;86.37;101700.91;6181308;23;20031;-84
2022/11/10 09:38:02;;;;;;;20.13;4.33;;;;;;;9.88;85.21;101705.31;6181148;23;20056;-82
2022/11/10 09:41:28;;;;;;;12.45;2.88;;;;;;;9.93;85.31;101706.03;6181277;23;20082;-79
2022/11/10 09:45:01;;;;;;;14.95;3.70;;;;;;;9.92;85.29;101704.34;6179051;23;20067;-81
2022/11/10 09:48:24;;;;;;;12.23;4.55;;;;;;;10.01;84.95;101719.72;6179818;23;20020;-81
2022/11/10 09:51:52;;;;;;;8.77;3.20;;;;;;;10.01;84.88;101714.47;6180868;23;20055;-82
2022/11/10 09:55:54;;;;;;;;;;;;;;;;;;;;;
2022/11/10 09:59:31;;;;;;;38.30;26.02;;;;;;;10.13;84.64;101730.69;6180815;23;20028;-82
2022/11/10 10:03:03;;;;;;;13.88;5.45;;;;;;;10.16;84.64;101735.81;6181891;23;20097;-84
2022/11/10 10:06:25;;;;;;;13.00;3.47;;;;;;;10.17;84.59;101727.06;6180982;23;20062;-83
2022/11/10 10:10:01;;;;;;;18.77;6.45;;;;;;;10.27;84.19;101718.06;6181098;23;20511;-83
2022/11/10 10:13:54;;;;;;;16.42;5.53;;;;;;;10.40;83.57;101731.59;6181190;23;20028;-82
2022/11/10 10:17:49;;;;;;;8.32;2.80;;;;;;;10.51;83.28;101712.97;6181006;23;20082;-82
2022/11/10 10:21:26;;;;;;;12.52;2.92;;;;;;;10.56;82.42;101717.16;6181078;23;20028;-82
2022/11/10 10:24:52;;;;;;;11.55;4.38;;;;;;;10.57;82.15;101711.00;6180924;23;20327;-82
2022/11/10 10:28:22;;;;;;;12.80;3.03;;;;;;;10.61;82.83;101714.38;6180572;23;20032;-82
2022/11/10 10:31:52;;;;;;;10.55;3.20;;;;;;;10.66;82.94;101713.31;6180991;23;20028;-83
2022/11/10 10:35:16;;;;;;;10.98;2.80;;;;;;;10.69;82.48;101707.13;6162653;23;20070;-81
2022/11/10 10:38:40;;;;;;;8.18;2.33;;;;;;;10.76;82.46;101713.84;6180692;23;20052;-86
2022/11/10 10:42:08;;;;;;;;;;;;;;;10.80;82.14;101715.44;6181442;23;20023;-82
2022/11/10 10:46:10;;;;;;;12.50;2.72;;;;;;;10.81;83.82;101717.16;6180984;23;19915;-82
2022/11/10 10:49:35;;;;;;;13.15;4.38;;;;;;;10.94;81.82;101723.69;6180818;23;20506;-82
2022/11/10 10:53:21;;;;;;;15.35;3.83;;;;;;;11.02;80.84;101733.03;6166646;23;20039;-82
2022/11/10 10:56:43;;;;;;;9.07;2.30;;;;;;;11.06;80.23;101726.78;6166551;23;20081;-82
2022/11/10 11:00:11;;;;;;;11.88;3.03;;;;;;;11.12;80.18;101721.31;6180682;23;20031;-80
2022/11/10 11:03:46;;;;;;;8.88;3.25;;;;;;;11.22;79.53;101721.84;6180756;23;20029;-81
2022/11/10 11:07:50;;;;;;;8.65;2.75;;;;;;;11.29;79.55;101725.94;6180780;23;20089;-82
2022/11/10 11:11:13;;;;;;;11.43;2.53;;;;;;;11.48;78.30;101734.00;6167937;23;20473;-75
2022/11/10 11:14:35;;;;;;;16.95;4.50;;;;;;;11.78;77.61;101727.63;6179198;23;20366;-81
2022/11/10 11:18:02;;;;;;;14.65;3.90;;;;;;;11.70;76.38;101724.44;6181780;23;20028;-76
2022/11/10 11:21:37;;;;;;;10.75;3.10;;;;;;;11.60;77.10;101734.41;6181775;23;20465;-76
2022/11/10 11:25:14;;;;;;;13.50;3.80;;;;;;;11.61;77.75;101736.13;6181784;23;20363;-76
2022/11/10 11:28:48;;;;;;;10.85;3.35;;;;;;;11.67;76.24;101740.25;6181737;23;20066;-76
2022/11/10 11:32:27;;;;;;;10.10;3.25;;;;;;;11.71;75.19;101735.75;6181838;23;20024;-76
2022/11/10 11:36:30;;;;;;;13.15;3.05;;;;;;;11.78;74.68;101737.25;6181821;23;20028;-76
2022/11/10 11:40:11;;;;;;;13.98;3.90;;;;;;;11.82;73.19;101738.84;6181803;23;20362;-76
2022/11/10 11:43:59;;;;;;;9.80;2.65;;;;;;;11.81;72.77;101748.47;6181773;23;20028;-76
2022/11/10 11:47:20;;;;;;;9.55;2.33;;;;;;;11.78;72.27;101743.34;6181633;23;20035;-75
2022/11/10 11:51:13;;;;;;;8.75;2.65;;;;;;;11.78;72.76;101735.47;6181783;23;20067;-76
2022/11/10 11:54:49;;;;;;;13.85;2.67;;;;;;;11.84;72.56;101742.25;6180988;23;20710;-76
2022/11/10 11:58:29;;;;;;;14.60;2.75;;;;;;;11.88;72.29;101749.13;6179113;23;20024;-76
2022/11/10 12:02:29;;;;;;;7.75;2.42;;;;;;;11.90;73.04;101757.78;6179736;23;20040;-76
2022/11/10 12:06:22;;;;;;;9.27;3.15;;;;;;;11.93;72.29;101755.03;6180957;23;20024;-75
2022/11/10 12:09:53;;;;;;;11.52;3.50;;;;;;;11.97;71.35;101758.41;6179126;23;20065;-76
2022/11/10 12:13:34;;;;;;;10.70;2.58;;;;;;;11.97;72.16;101758.41;6181082;23;20070;-76
2022/11/10 12:17:23;;;;;;;11.55;2.92;;;;;;;12.00;71.74;101760.91;6180922;23;20052;-76
2022/11/10 12:21:05;;;;;;;8.13;2.88;;;;;;;11.97;71.26;101759.25;6181055;23;20028;-77
2022/11/10 12:24:42;;;;;;;7.22;2.42;;;;;;;11.97;71.41;101756.63;6181127;23;20020;-77
2022/11/10 12:28:18;;;;;;;8.23;1.90;;;;;;;11.97;70.22;101766.28;6181442;23;20393;-77
2022/11/10 12:31:48;;;;;;;9.27;2.00;;;;;;;11.94;70.46;101763.75;6181453;23;20362;-76
2022/11/10 12:35:29;;;;;;;13.18;3.92;;;;;;;12.26;71.02;101759.88;6181433;23;20093;-78
2022/11/10 12:39:03;;;;;;;9.82;2.83;;;;;;;12.12;69.46;101763.03;6181624;23;20078;-83
2022/11/10 12:42:28;;;;;;;7.45;2.75;;;;;;;12.04;70.22;101773.81;6154852;23;20083;-76
2022/11/10 12:45:55;;;;;;;9.45;2.33;;;;;;;11.99;70.71;101782.78;6173127;23;20514;-76
2022/11/10 12:49:34;;;;;;;10.85;2.08;;;;;;;11.99;70.62;101777.53;6181168;23;20020;-77
2022/11/10 12:53:27;;;;;;;9.25;2.22;;;;;;;11.97;70.92;101782.84;6180003;23;20051;-77
2022/11/10 12:56:53;;;;;;;12.45;2.55;;;;;;;12.03;70.83;101781.78;6181372;23;20071;-76
2022/11/10 13:00:36;;;;;;;8.68;2.83;;;;;;;12.14;70.64;101787.44;6181452;23;20032;-84
2022/11/10 13:04:00;;;;;;;8.45;2.63;;;;;;;12.05;71.30;101790.41;6181233;23;20067;-82
2022/11/10 13:07:24;;;;;;;6.13;2.45;;;;;;;11.98;72.41;101786.31;6180774;23;20059;-86
2022/11/10 13:11:05;;;;;;;15.15;5.60;;;;;;;11.98;71.86;101786.31;6179943;23;20028;-81
2022/11/10 13:14:56;;;;;;;11.05;3.63;;;;;;;11.96;71.73;101798.63;6181365;23;20028;-82
2022/11/10 13:18:54;;;;;;;9.73;2.33;;;;;;;11.96;71.71;101798.63;6181240;23;20396;-86
2022/11/10 13:22:35;;;;;;;10.05;2.28;;;;;;;11.93;72.42;101809.22;6181345;23;20098;-85
2022/11/10 13:26:10;;;;;;;7.55;2.08;;;;;;;11.98;72.03;101807.28;6181124;23;20401;-83
2022/11/10 13:29:44;;;;;;;14.18;1.67;;;;;;;12.00;71.69;101805.47;6179760;23;20481;-82
2022/11/10 13:33:59;;;;;;;7.30;1.65;;;;;;;12.00;72.19;101806.31;6180978;23;20028;-83
2022/11/10 13:37:41;;;;;;;9.07;2.22;;;;;;;12.00;71.86;101793.22;6180484;23;20418;-83
2022/11/10 13:41:24;;;;;;;11.35;3.13;;;;;;;12.02;71.82;101795.75;6181157;23;20024;-86
2022/11/10 13:44:51;;;;;;;11.48;3.95;;;;;;;12.02;71.65;101803.63;6163027;23;20074;-88
2022/11/10 13:49:28;;;;;;;16.73;7.93;;;;;;;12.01;72.01;101815.03;6167484;23;20024;-90
2022/11/10 13:57:55;;;;;;;11.85;4.88;;;;;;;11.96;72.57;101824.81;6103071;23;20084;-86
2022/11/10 14:01:46;;;;;;;9.18;2.05;;;;;;;11.96;72.70;101828.31;6132934;23;20105;-84
2022/11/10 14:05:28;;;;;;;15.02;2.55;;;;;;;11.90;72.96;101833.78;6122078;23;20029;-84
2022/11/10 14:13:48;;;;;;;10.63;1.75;;;;;;;11.86;72.58;101825.16;6123548;23;20084;-85
2022/11/10 14:17:50;;;;;;;10.45;2.13;;;;;;;11.86;72.80;101825.16;6121786;23;20107;-89
2022/11/10 14:21:26;;;;;;;8.65;2.00;;;;;;;11.87;73.17;101833.91;6136743;23;20029;-83
2022/11/10 14:25:18;;;;;;;14.38;2.28;;;;;;;11.82;72.88;101834.03;6138129;23;20463;-86
2022/11/10 14:28:55;;;;;;;9.18;1.90;;;;;;;11.89;72.19;101841.69;6122080;23;20040;-87
2022/11/10 14:36:17;;;;;;;7.68;2.22;;;;;;;11.82;72.62;101855.00;6121942;23;20060;-85
2022/11/10 14:39:40;;;;;;;10.77;5.13;;;;;;;11.83;72.56;101853.22;6121730;23;20072;-84
2022/11/10 14:43:04;;;;;;;12.60;6.60;;;;;;;11.78;73.17;101842.91;6121780;23;20387;-86
2022/11/10 14:46:27;;;;;;;60.22;50.45;;;;;;;11.77;73.24;101856.94;6121801;23;20025;-84
2022/11/10 14:50:16;;;;;;;11.52;3.47;;;;;;;11.77;73.38;101863.94;6121539;23;20028;-83
2022/11/10 14:53:45;;;;;;;10.43;2.45;;;;;;;11.73;73.10;101857.09;6119978;23;20360;-84
2022/11/10 14:57:16;;;;;;;12.55;2.75;;;;;;;11.72;72.66;101864.09;6121422;23;20029;-85
2022/11/10 15:00:44;;;;;;;14.10;5.25;;;;;;;11.74;72.72;101862.28;6121876;23;20028;-86
2022/11/10 15:04:11;;;;;;;24.70;16.05;;;;;;;11.72;72.82;101864.09;6122355;23;20077;-85
2022/11/10 15:07:40;;;;;;;17.10;6.25;;;;;;;11.65;73.25;101852.13;6121642;23;20025;-85
2022/11/10 15:11:06;;;;;;;9.25;2.70;;;;;;;11.56;73.58;101853.31;6137029;23;20573;-85
2022/11/10 15:14:48;;;;;;;15.23;3.03;;;;;;;11.51;73.80;101846.50;6121629;23;20056;-84
2022/11/10 15:18:28;;;;;;;8.68;2.58;;;;;;;11.45;74.30;101855.44;6121473;23;20076;-83
2022/11/10 15:21:52;;;;;;;13.82;4.20;;;;;;;11.41;74.35;101846.84;6121668;23;20029;-83
2022/11/10 15:25:17;;;;;;;20.67;6.35;;;;;;;11.39;74.48;101853.91;6121351;23;20054;-83
2022/11/10 15:28:45;;;;;;;12.65;4.72;;;;;;;11.34;74.98;101857.59;6137678;23;20410;-84
2022/11/10 15:32:18;;;;;;;13.25;3.95;;;;;;;11.28;75.34;101858.63;6121414;23;20075;-84
2022/11/10 15:35:40;;;;;;;17.98;5.57;;;;;;;11.23;75.52;101854.47;6121377;23;20410;-83
2022/11/10 15:39:11;;;;;;;7.72;2.28;;;;;;;11.20;75.89;101846.72;6121046;23;20067;-86
2022/11/10 15:42:34;;;;;;;12.98;3.97;;;;;;;11.17;76.00;101842.44;6121248;23;20029;-82
2022/11/10 15:51:33;;;;;;;19.25;6.35;;;;;;;11.05;76.88;101842.84;6133136;23;20422;-87
2022/11/10 15:54:56;;;;;;;11.75;2.83;;;;;;;11.00;76.92;101839.53;6137314;23;20405;-85
2022/11/10 15:58:33;;;;;;;12.93;2.78;;;;;;;10.98;77.30;101851.81;6121187;23;20033;-88
2022/11/10 16:02:57;;;;;;;11.07;3.57;;;;;;;10.91;77.61;101854.63;6062057;23;20041;-86
2022/11/10 16:06:24;;;;;;;11.77;2.85;;;;;;;10.88;77.75;101854.75;6050771;23;20055;-79
2022/11/10 16:09:46;;;;;;;7.90;2.05;;;;;;;10.85;78.19;101860.06;6121682;23;20021;-80
2022/11/10 16:13:11;;;;;;;14.68;2.83;;;;;;;10.85;78.02;101854.00;6120702;23;20033;-79
2022/11/10 16:16:34;;;;;;;11.95;3.50;;;;;;;10.86;78.28;101864.38;6122439;23;20029;-80
2022/11/10 16:19:58;;;;;;;11.57;5.22;;;;;;;10.80;78.86;101872.44;6122536;23;20410;-80
2022/11/10 16:23:25;;;;;;;11.98;2.35;;;;;;;10.38;81.01;101874.63;6122433;23;20454;-79
2022/11/10 16:26:47;;;;;;;6.68;3.13;;;;;;;10.46;80.85;101889.19;6122507;23;20087;-80
2022/11/10 16:30:12;;;;;;;9.45;2.88;;;;;;;10.45;80.80;101881.38;6122493;23;20021;-79
2022/11/10 16:33:35;;;;;;;6.50;1.63;;;;;;;10.30;80.84;101887.03;6122121;23;20028;-79
2022/11/10 16:36:57;;;;;;;7.30;1.83;;;;;;;10.16;81.84;101890.03;6120660;23;20025;-78
2022/11/10 16:40:23;;;;;;;14.55;3.50;;;;;;;10.27;81.55;101902.81;6121330;23;20029;-78
2022/11/10 16:43:45;;;;;;;7.75;1.98;;;;;;;10.20;81.27;101908.19;6122431;23;20025;-84
2022/11/10 16:47:17;;;;;;;9.40;4.30;;;;;;;10.31;81.29;101907.09;6122447;23;20029;-80
2022/11/10 16:50:39;;;;;;;13.45;4.75;;;;;;;10.22;81.35;101911.63;6122004;23;20048;-84
2022/11/10 16:54:03;;;;;;;5.85;1.80;;;;;;;9.97;82.32;101921.91;6122335;23;20025;-80
2022/11/10 16:57:25;;;;;;;5.90;2.22;;;;;;;9.83;82.92;101926.66;6122186;23;20028;-78
2022/11/10 17:04:40;;;;;;;9.20;1.48;;;;;;;9.78;82.32;101949.44;6122423;23;20028;-83
2022/11/10 17:08:02;;;;;;;9.77;2.42;;;;;;;9.76;82.46;101944.25;6122611;23;20352;-83
2022/11/10 17:11:27;;;;;;;10.80;2.20;;;;;;;9.76;82.64;101944.25;6122269;23;20026;-84
2022/11/10 17:14:50;;;;;;;9.23;2.70;;;;;;;9.73;82.70;101959.13;6122398;23;20083;-83
2022/11/10 17:18:19;;;;;;;4.90;1.88;;;;;;;9.67;82.63;101954.94;6122226;23;20107;-81
2022/11/10 17:21:42;;;;;;;4.93;2.13;;;;;;;9.71;82.47;101945.28;6122265;23;20043;-82
2022/11/10 17:25:16;;;;;;;7.63;2.20;;;;;;;9.55;82.96;101953.50;6122367;23;20028;-83
2022/11/10 17:28:45;;;;;;;7.13;1.67;;;;;;;9.41;83.09;101963.44;6121780;23;20462;-84
2022/11/10 17:32:07;;;;;;;12.10;2.47;;;;;;;9.44;83.99;101963.31;6122119;23;20029;-81
2022/11/10 17:35:30;;;;;;;7.93;2.38;;;;;;;9.37;83.58;101971.34;6122156;23;20052;-82
2022/11/10 17:38:52;;;;;;;6.18;2.00;;;;;;;9.41;83.24;101973.00;6122056;23;20029;-82
2022/11/10 17:42:14;;;;;;;12.23;2.97;;;;;;;9.20;84.39;101974.38;6122520;23;20025;-82
2022/11/10 17:45:36;;;;;;;8.80;2.15;;;;;;;9.11;84.33;101985.88;6122197;23;20029;-81
2022/11/10 17:48:58;;;;;;;13.35;3.63;;;;;;;9.25;83.51;101988.16;6122066;23;20025;-83
2022/11/10 17:52:21;;;;;;;6.32;1.92;;;;;;;9.06;83.82;102001.66;6122188;23;20033;-82
2022/11/10 17:55:43;;;;;;;18.95;3.42;;;;;;;9.00;84.31;102004.41;6122328;23;20080;-79
2022/11/10 17:59:04;;;;;;;6.15;1.95;;;;;;;9.04;83.83;102011.25;6121400;23;20517;-81
2022/11/10 18:02:27;;;;;;;8.15;1.92;;;;;;;8.80;84.45;102023.06;6122028;23;20358;-81
2022/11/10 18:05:49;;;;;;;9.63;2.10;;;;;;;8.73;84.78;102024.09;6122077;23;20025;-80
2022/11/10 18:09:10;;;;;;;7.50;4.13;;;;;;;9.02;83.69;102017.38;6121993;23;20021;-81
2022/11/10 18:12:33;;;;;;;7.45;2.72;;;;;;;8.92;83.66;102016.72;6121984;23;20028;-81
2022/11/10 18:15:58;;;;;;;8.00;4.53;;;;;;;8.79;84.29;102029.19;6121981;23;20106;-78
2022/11/10 18:19:20;;;;;;;11.10;2.60;;;;;;;8.85;84.39;102031.66;6120121;23;20029;-78
2022/11/10 18:22:45;;;;;;;7.53;2.70;;;;;;;8.80;84.07;102033.50;6119411;23;20028;-76
2022/11/10 18:26:07;;;;;;;6.28;2.72;;;;;;;8.72;84.25;102026.75;6120511;23;20107;-77
2022/11/10 18:29:29;;;;;;;7.05;2.10;;;;;;;8.55;85.14;102027.94;6119100;23;20025;-80
2022/11/10 18:32:51;;;;;;;9.63;2.13;;;;;;;8.61;84.41;102027.81;6120404;23;20028;-83
2022/11/10 18:36:13;;;;;;;9.88;2.47;;;;;;;8.65;83.94;102033.81;6121530;23;20371;-80
2022/11/10 18:39:36;;;;;;;6.50;2.40;;;;;;;8.59;84.04;102029.59;6121044;23;20115;-83
2022/11/10 18:43:00;;;;;;;11.60;4.80;;;;;;;8.56;84.19;102036.63;6121428;23;20474;-82
2022/11/10 18:46:23;;;;;;;13.30;6.90;;;;;;;8.67;84.10;102033.78;6122136;23;20087;-81
2022/11/10 18:49:45;;;;;;;7.43;3.45;;;;;;;8.48;84.56;102035.91;6120036;23;20025;-78
2022/11/10 18:53:07;;;;;;;12.48;2.60;;;;;;;8.60;84.12;102027.84;6121547;23;20067;-81
2022/11/10 18:56:30;;;;;;;7.90;2.75;;;;;;;8.24;84.79;102034.59;6121504;23;20075;-81
2022/11/10 18:59:53;;;;;;;19.27;8.63;;;;;;;8.47;84.37;102028.97;6120096;23;20415;-83
2022/11/10 19:03:15;;;;;;;8.32;3.50;;;;;;;8.36;84.75;102044.78;6121651;23;20104;-83
2022/11/10 19:06:37;;;;;;;22.17;12.30;;;;;;;8.30;85.15;102052.72;6121506;23;20494;-82
2022/11/10 19:10:22;;;;;;;28.48;17.77;;;;;;;8.32;85.21;102054.38;6134168;23;20517;-81
2022/11/10 19:13:45;;;;;;;12.95;7.93;;;;;;;8.22;85.22;102068.47;6121951;23;20605;-83
2022/11/10 19:17:08;;;;;;;17.20;12.65;;;;;;;8.26;84.79;102070.13;6120432;23;20359;-85
2022/11/10 19:20:37;;;;;;;15.00;8.02;;;;;;;8.29;84.81;102077.03;6121940;23;20091;-84
2022/11/10 19:23:59;;;;;;;16.80;11.35;;;;;;;8.29;83.65;102084.88;6137264;23;20470;-85
2022/11/10 19:27:21;;;;;;;16.38;8.07;;;;;;;8.15;84.50;102091.19;6120437;23;20030;-84
2022/11/10 19:30:43;;;;;;;9.20;4.10;;;;;;;8.32;84.15;102090.03;6121056;23;20044;-83
2022/11/10 19:34:06;;;;;;;9.00;3.30;;;;;;;8.20;84.57;102092.84;6121732;23;20474;-83
2022/11/10 19:37:33;;;;;;;7.07;2.88;;;;;;;8.08;84.48;102093.94;6122790;23;20028;-85
2022/11/10 19:40:57;;;;;;;9.02;3.40;;;;;;;8.14;84.21;102096.44;6121646;23;20535;-84
2022/11/10 19:44:20;;;;;;;9.15;5.35;;;;;;;8.17;84.21;102091.16;6122291;23;20025;-83
2022/11/10 19:47:45;;;;;;;;;;;;;;;8.09;84.14;102080.84;6123218;23;20030;-84
2022/11/10 19:51:08;;;;;;;13.25;7.43;;;;;;;8.14;83.29;102071.22;6121854;23;19920;-83
2022/11/10 19:54:29;;;;;;;10.38;5.72;;;;;;;8.01;84.36;102072.34;6122116;23;20032;-84
2022/11/10 19:57:51;;;;;;;14.23;5.10;;;;;;;7.98;84.47;102072.38;6121990;23;20470;-84
2022/11/10 20:01:17;;;;;;;8.68;2.78;;;;;;;7.95;84.20;102077.66;6122013;23;20029;-82
2022/11/10 20:05:11;;;;;;;11.80;3.72;;;;;;;7.94;84.30;102070.69;6122010;23;20040;-86
2022/11/10 20:09:23;;;;;;;11.90;2.30;;;;;;;8.00;83.76;102075.81;6122383;23;20041;-84
2022/11/10 20:12:49;;;;;;;7.55;3.78;;;;;;;7.98;83.96;102075.00;6122479;23;20364;-86
2022/11/10 20:16:14;;;;;;;10.63;2.80;;;;;;;7.71;83.91;102084.09;6122457;23;20029;-82
2022/11/10 20:19:37;;;;;;;8.23;2.53;;;;;;;7.89;83.35;102085.56;6122322;23;20025;-82
2022/11/10 20:23:01;;;;;;;6.22;2.40;;;;;;;7.87;83.58;102093.38;6122447;23;20025;-85
2022/11/10 20:26:26;;;;;;;11.45;3.05;;;;;;;7.77;83.52;102098.75;6138742;23;20028;-85
2022/11/10 22:05:52;;;;;;;34.05;27.00;;;;;;;6.89;82.16;102105.16;6209901;23;20107;-77
2022/11/10 22:18:35;;;;;;;22.98;15.13;;;;;;;6.83;82.41;102110.44;6151583;23;20043;-84
2022/11/10 22:20:28;;;;;;;21.00;13.38;;;;;;;6.62;82.28;102127.09;6152255;23;20064;-85
2022/11/10 22:27:35;;;;;;;13.68;8.80;;;;;;;6.66;82.21;102120.13;6135198;23;20470;-85
2022/11/10 22:30:57;;;;;;;23.63;14.88;;;;;;;6.50;82.66;102115.09;6154976;23;20028;-85
2022/11/10 22:34:21;;;;;;;;;;;;;;;6.31;82.70;102123.09;6154201;23;20051;-85
2022/11/10 22:37:45;;;;;;;11.38;5.55;;;;;;;6.48;82.07;102131.59;6153046;23;19920;-85
2022/11/10 22:44:57;;;;;;;9.07;2.80;;;;;;;6.47;82.06;102140.25;6151354;23;20028;-83
2022/11/10 22:48:25;;;;;;;15.80;9.75;;;;;;;6.41;81.80;102141.16;6151422;23;20354;-83
2022/11/10 22:51:51;;;;;;;23.85;15.25;;;;;;;6.24;82.36;102148.25;6151287;23;20029;-83
2022/11/10 22:55:15;;;;;;;9.30;5.45;;;;;;;6.25;82.30;102160.34;6133102;23;20025;-84
2022/11/10 22:58:36;;;;;;;11.15;3.65;;;;;;;6.15;82.94;102164.75;6128351;23;20474;-83
2022/11/10 23:01:58;;;;;;;13.90;6.50;;;;;;;6.27;83.15;102167.25;6121761;23;20068;-82
2022/11/10 23:05:21;;;;;;;34.20;21.00;;;;;;;6.37;82.34;102167.19;6121470;23;20067;-83
2022/11/10 23:08:44;;;;;;;18.87;10.80;;;;;;;6.30;82.24;102176.78;6121468;23;20041;-83
2022/11/10 23:12:06;;;;;;;28.05;16.27;;;;;;;6.25;81.85;102186.34;6121599;23;20750;-83
2022/11/10 23:15:31;;;;;;;19.20;11.43;;;;;;;6.23;81.94;102186.34;6121633;23;20040;-83
2022/11/10 23:18:56;;;;;;;15.13;7.75;;;;;;;6.08;82.33;102186.47;6121500;23;20025;-83
2022/11/10 23:22:18;;;;;;;8.57;5.63;;;;;;;6.08;82.26;102190.81;6121571;23;20025;-84
2022/11/10 23:25:39;;;;;;;11.02;4.18;;;;;;;6.21;82.33;102185.50;6125378;23;20105;-85
2022/11/10 23:29:01;;;;;;;6.18;2.65;;;;;;;6.45;80.99;102174.06;6124802;23;20095;-85
2022/11/10 23:32:22;;;;;;;6.75;3.08;;;;;;;6.19;82.07;102176.00;6112281;23;20037;-85
2022/11/10 23:35:44;;;;;;;6.13;2.70;;;;;;;6.35;81.32;102176.72;6126665;23;20084;-85
2022/11/10 23:39:07;;;;;;;6.00;3.05;;;;;;;6.47;81.12;102174.03;6124896;23;20101;-85
2022/11/10 23:42:29;;;;;;;6.38;2.88;;;;;;;6.15;82.02;102169.09;6122028;23;20029;-87
2022/11/10 23:45:54;;;;;;;12.75;3.15;;;;;;;6.21;82.45;102162.13;6121191;23;20071;-87
2022/11/10 23:49:16;;;;;;;12.90;3.25;;;;;;;6.44;81.53;102172.31;6121146;23;20132;-88
2022/11/10 23:52:38;;;;;;;10.02;3.58;;;;;;;6.17;82.80;102170.81;6121157;23;20525;-88
2022/11/10 23:56:03;;;;;;;14.43;3.97;;;;;;;6.11;84.06;102178.66;6107575;23;20025;-88
2022/11/10 23:59:27;;;;;;;17.23;4.70;;;;;;;6.33;83.83;102178.50;6120990;23;20045;-87
